Time;durP1;ratioP1;P1;durP2;ratioP2;P2;SDS_P1;SDS_P2;PMS_P1;PMS_P2;Temp;Humidity;BMP_temperature;BMP_pressure;BME280_temperature;BME280_humidity;BME280_pressure;Samples;Min_cycle;Max_cycle;Signal;HPM_P1;HPM_P2
2021/07/09 00:01:39;;;;;;;9.43;5.93;;;;;;;17.78;79.81;102098.53;5176247;28;20039;-67
2021/07/09 00:04:11;;;;;;;6.80;5.80;;;;;;;17.93;79.60;102098.88;5179358;28;20393;-66
2021/07/09 00:06:44;;;;;;;9.17;5.90;;;;;;;17.88;79.62;102094.03;5179425;28;20027;-66
2021/07/09 00:09:15;;;;;;;6.95;6.22;;;;;;;17.69;80.54;102086.97;5179314;28;20109;-66
2021/07/09 00:11:50;;;;;;;7.43;6.30;;;;;;;17.71;80.34;102087.63;5171500;28;20069;-66
2021/07/09 00:14:25;;;;;;;7.75;6.57;;;;;;;17.60;80.44;102087.81;5179512;28;20058;-66
2021/07/09 00:16:56;;;;;;;6.90;6.00;;;;;;;17.62;80.17;102085.06;5178929;28;20058;-66
2021/07/09 00:19:28;;;;;;;6.97;5.72;;;;;;;17.58;80.27;102087.16;5175543;28;20499;-67
2021/07/09 00:22:00;;;;;;;7.32;6.05;;;;;;;17.50;80.92;102089.66;5179630;28;20073;-66
2021/07/09 00:24:32;;;;;;;10.13;7.30;;;;;;;17.48;80.93;102081.88;5178960;28;20031;-66
2021/07/09 00:27:03;;;;;;;9.00;6.13;;;;;;;17.46;80.72;102081.22;5179185;28;20026;-67
2021/07/09 00:29:34;;;;;;;13.00;7.53;;;;;;;17.31;81.36;102084.44;5176155;28;20492;-66
2021/07/09 00:32:07;;;;;;;7.93;6.50;;;;;;;17.25;82.43;102085.88;5173056;28;20033;-66
2021/07/09 00:34:38;;;;;;;7.27;6.33;;;;;;;17.29;82.37;102079.28;5178859;28;20089;-65
2021/07/09 00:37:09;;;;;;;10.48;6.97;;;;;;;17.24;82.10;102087.69;5168738;28;20567;-66
2021/07/09 00:39:40;;;;;;;8.60;6.90;;;;;;;17.19;82.30;102089.91;5175526;28;20498;-65
2021/07/09 00:42:12;;;;;;;8.98;6.57;;;;;;;17.17;82.69;102083.94;5170673;28;20035;-65
2021/07/09 00:44:43;;;;;;;8.43;7.30;;;;;;;17.11;82.55;102076.53;5171090;28;20019;-66
2021/07/09 00:47:14;;;;;;;9.05;7.38;;;;;;;17.06;83.05;102084.09;5171682;28;20086;-66
2021/07/09 00:49:48;;;;;;;10.32;7.75;;;;;;;16.97;83.74;102087.56;5178728;28;20131;-66
2021/07/09 00:52:20;;;;;;;8.25;6.80;;;;;;;16.94;83.63;102086.06;5169744;28;20110;-66
2021/07/09 00:54:52;;;;;;;9.50;7.13;;;;;;;16.89;84.20;102084.81;5176634;28;20101;-65
2021/07/09 00:57:24;;;;;;;8.90;7.60;;;;;;;16.83;84.85;102072.97;5176992;28;20019;-66
2021/07/09 00:59:55;;;;;;;9.70;7.80;;;;;;;16.74;84.98;102081.75;5178674;28;20475;-66
2021/07/09 01:02:26;;;;;;;9.25;6.88;;;;;;;16.73;84.66;102080.91;5178104;28;20022;-66
2021/07/09 01:04:58;;;;;;;9.90;7.53;;;;;;;16.65;85.63;102075.47;5173880;28;20080;-66
2021/07/09 01:07:29;;;;;;;11.13;8.18;;;;;;;16.64;85.19;102081.72;5178785;28;20041;-65
2021/07/09 01:10:01;;;;;;;8.63;7.22;;;;;;;16.59;85.40;102076.00;5178371;28;20026;-66
2021/07/09 01:12:37;;;;;;;8.93;7.15;;;;;;;16.57;86.18;102077.97;5168004;28;20028;-66
2021/07/09 01:15:11;;;;;;;8.65;7.10;;;;;;;16.51;86.11;102082.00;5177710;28;20023;-66
2021/07/09 01:17:42;;;;;;;10.68;7.57;;;;;;;16.47;86.75;102074.47;5163008;28;20023;-66
2021/07/09 01:20:16;;;;;;;10.40;7.57;;;;;;;16.45;86.67;102074.63;5178479;28;20042;-66
2021/07/09 01:28:10;;;;;;;12.15;7.50;;;;;;;16.19;87.55;102082.25;5451972;22;20061;-66
2021/07/09 01:30:41;;;;;;;12.52;7.85;;;;;;;16.19;87.97;102084.91;5226728;28;20033;-66
2021/07/09 01:33:13;;;;;;;10.00;7.78;;;;;;;16.10;88.43;102076.94;5224269;28;20669;-66
2021/07/09 01:35:44;;;;;;;8.88;6.90;;;;;;;16.04;88.10;102070.41;5228913;28;20364;-66
2021/07/09 01:38:16;;;;;;;10.63;7.72;;;;;;;16.06;88.65;102079.00;5227924;28;20045;-66
2021/07/09 01:40:47;;;;;;;11.07;8.27;;;;;;;15.86;89.79;102083.41;5215520;28;20037;-67
2021/07/09 01:43:23;;;;;;;10.65;7.93;;;;;;;15.97;90.31;102079.84;5217484;28;20044;-66
2021/07/09 01:45:55;;;;;;;8.95;7.35;;;;;;;15.84;89.99;102081.91;5218279;28;20487;-66
2021/07/09 01:48:27;;;;;;;9.60;7.95;;;;;;;15.80;90.46;102076.03;5205221;28;20030;-66
2021/07/09 01:50:58;;;;;;;9.35;7.75;;;;;;;15.82;90.53;102076.72;5217575;28;20032;-66
2021/07/09 01:53:30;;;;;;;10.98;7.63;;;;;;;15.80;90.64;102078.69;5215681;28;20268;-66
2021/07/09 01:56:02;;;;;;;11.93;8.70;;;;;;;15.74;90.50;102081.84;5199976;28;20037;-66
2021/07/09 01:58:33;;;;;;;8.93;7.95;;;;;;;15.72;91.51;102079.34;5207424;28;20398;-66
2021/07/09 02:01:05;;;;;;;9.40;7.78;;;;;;;15.65;91.94;102075.56;5208683;28;20037;-66
2021/07/09 02:03:39;;;;;;;12.10;8.60;;;;;;;15.73;91.85;102075.72;5216997;28;20513;-66
2021/07/09 02:06:11;;;;;;;9.43;7.88;;;;;;;15.64;92.33;102078.28;5216720;28;20045;-66
2021/07/09 02:08:42;;;;;;;9.85;8.18;;;;;;;15.62;92.21;102078.44;5225565;28;20030;-66
2021/07/09 02:11:13;;;;;;;9.82;7.70;;;;;;;15.57;92.23;102078.00;5203241;28;20033;-66
2021/07/09 02:13:44;;;;;;;10.90;8.45;;;;;;;15.54;91.91;102076.47;5215745;28;20022;-66
2021/07/09 02:16:16;;;;;;;10.32;7.55;;;;;;;15.50;92.50;102080.34;5213075;28;20025;-66
2021/07/09 02:18:47;;;;;;;10.57;7.80;;;;;;;15.50;92.43;102082.16;5210127;28;20025;-66
2021/07/09 02:21:19;;;;;;;8.93;7.65;;;;;;;15.47;92.35;102075.31;5216967;28;20026;-66
2021/07/09 02:23:50;;;;;;;10.43;8.40;;;;;;;15.43;92.35;102083.63;5210011;28;20106;-66
2021/07/09 02:26:21;;;;;;;9.73;8.20;;;;;;;15.35;93.10;102078.19;5211668;28;20077;-66
2021/07/09 02:28:52;;;;;;;11.10;8.05;;;;;;;15.34;93.11;102079.97;5212619;28;20026;-66
2021/07/09 02:31:24;;;;;;;13.43;9.25;;;;;;;15.33;93.27;102076.47;5217427;28;20161;-66
2021/07/09 02:33:55;;;;;;;11.05;8.10;;;;;;;15.31;93.39;102075.78;5214514;28;20037;-66
2021/07/09 02:36:27;;;;;;;11.13;9.10;;;;;;;15.24;93.50;102082.56;5213379;28;20127;-66
2021/07/09 02:38:58;;;;;;;10.73;8.45;;;;;;;15.18;93.86;102083.06;5215253;28;20284;-66
2021/07/09 02:41:29;;;;;;;9.85;8.75;;;;;;;15.16;93.98;102082.38;5217359;28;20429;-66
2021/07/09 02:44:00;;;;;;;10.65;9.07;;;;;;;15.14;94.57;102080.81;5214857;28;20025;-66
2021/07/09 02:46:32;;;;;;;14.60;9.63;;;;;;;15.13;95.00;102087.91;5217363;28;20045;-66
2021/07/09 02:49:03;;;;;;;12.85;8.95;;;;;;;15.04;96.04;102088.69;5211957;28;20292;-66
2021/07/09 02:51:35;;;;;;;13.93;9.35;;;;;;;15.04;96.35;102084.25;5217180;28;20034;-66
2021/07/09 02:54:06;;;;;;;14.45;9.18;;;;;;;15.09;95.96;102089.13;5217697;28;20026;-66
2021/07/09 02:56:37;;;;;;;11.70;8.95;;;;;;;15.07;96.11;102083.97;5217791;28;20018;-66
2021/07/09 02:59:09;;;;;;;10.20;8.65;;;;;;;15.06;95.53;102090.22;5198598;28;20505;-66
2021/07/09 03:01:41;;;;;;;11.85;8.82;;;;;;;15.00;95.54;102087.25;5217326;28;20040;-66
2021/07/09 03:04:12;;;;;;;10.70;9.02;;;;;;;15.00;96.51;102081.97;5216886;28;20032;-66
2021/07/09 03:06:44;;;;;;;13.88;10.00;;;;;;;15.04;96.33;102086.06;5216237;28;20021;-66
2021/07/09 03:09:15;;;;;;;12.80;8.85;;;;;;;14.90;96.65;102084.56;5219458;28;20026;-66
2021/07/09 03:11:47;;;;;;;14.82;8.70;;;;;;;14.91;96.55;102080.13;5232028;28;20037;-66
2021/07/09 03:14:18;;;;;;;12.15;9.32;;;;;;;14.78;96.71;102089.06;5216942;28;20022;-66
2021/07/09 03:16:49;;;;;;;12.93;8.35;;;;;;;14.76;96.51;102083.06;5216441;28;20017;-66
2021/07/09 03:19:20;;;;;;;12.65;9.18;;;;;;;14.73;96.63;102087.75;5216874;28;20065;-67
2021/07/09 03:21:52;;;;;;;10.43;8.63;;;;;;;14.69;96.62;102078.41;5216936;28;20068;-66
2021/07/09 03:24:23;;;;;;;9.57;8.57;;;;;;;14.72;96.86;102076.38;5216768;28;20095;-66
2021/07/09 03:26:54;;;;;;;11.70;8.68;;;;;;;14.63;97.02;102081.59;5210893;28;20030;-66
2021/07/09 03:29:26;;;;;;;11.30;9.60;;;;;;;14.60;96.93;102069.47;5215650;28;20022;-66
2021/07/09 03:31:57;;;;;;;10.90;8.68;;;;;;;14.57;97.33;102069.72;5216916;28;20018;-66
2021/07/09 03:34:28;;;;;;;11.68;9.23;;;;;;;14.62;97.23;102077.25;5208533;28;20149;-66
2021/07/09 03:37:00;;;;;;;12.00;8.57;;;;;;;14.60;97.13;102072.13;5216537;28;20669;-66
2021/07/09 03:39:31;;;;;;;13.40;9.68;;;;;;;14.60;97.52;102082.66;5200803;28;20166;-66
2021/07/09 03:42:02;;;;;;;21.05;10.30;;;;;;;14.54;97.50;102069.97;5212046;28;20023;-66
2021/07/09 03:44:34;;;;;;;14.35;9.00;;;;;;;14.49;97.05;102061.56;5213299;28;20034;-66
2021/07/09 03:47:05;;;;;;;14.02;9.70;;;;;;;14.51;97.73;102078.16;5218959;28;20041;-66
2021/07/09 03:49:36;;;;;;;15.45;9.52;;;;;;;14.50;97.38;102079.09;5216708;28;20036;-66
2021/07/09 03:52:08;;;;;;;12.82;9.75;;;;;;;14.50;97.88;102072.00;5214079;28;20095;-66
2021/07/09 03:54:39;;;;;;;13.20;9.60;;;;;;;14.51;97.69;102076.34;5216276;28;20387;-66
2021/07/09 03:57:10;;;;;;;11.57;9.35;;;;;;;14.51;97.65;102083.44;5183393;28;20310;-66
2021/07/09 03:59:41;;;;;;;12.43;9.73;;;;;;;14.43;98.51;102073.44;5214965;28;20427;-66
2021/07/09 04:02:13;;;;;;;11.82;8.65;;;;;;;14.45;97.84;102079.44;5208753;28;20112;-66
2021/07/09 04:04:44;;;;;;;12.48;9.10;;;;;;;14.49;98.14;102072.13;5213353;28;20033;-66
2021/07/09 04:07:15;;;;;;;11.55;8.52;;;;;;;14.44;97.65;102079.59;5206563;28;20018;-66
2021/07/09 04:09:47;;;;;;;15.50;9.40;;;;;;;14.47;97.66;102079.31;5206810;28;20117;-67
2021/07/09 04:12:18;;;;;;;12.25;9.52;;;;;;;14.47;98.31;102076.66;5216995;28;20029;-67
2021/07/09 04:14:49;;;;;;;11.82;8.88;;;;;;;14.45;98.42;102082.09;5217211;28;20456;-67
2021/07/09 04:17:20;;;;;;;11.32;9.73;;;;;;;14.47;98.42;102081.94;5207316;28;20064;-66
2021/07/09 04:19:52;;;;;;;12.23;9.68;;;;;;;14.47;98.41;102082.81;5220976;28;20061;-66
2021/07/09 04:22:23;;;;;;;11.68;9.15;;;;;;;14.44;98.44;102087.50;5210269;28;20018;-66
2021/07/09 04:24:54;;;;;;;13.45;8.90;;;;;;;14.49;98.04;102080.91;5214078;28;20099;-66
2021/07/09 04:27:26;;;;;;;12.38;9.07;;;;;;;14.45;99.56;102082.09;5216431;28;20175;-66
2021/07/09 04:29:57;;;;;;;12.68;9.48;;;;;;;14.50;99.93;102089.63;5219401;28;20526;-66
2021/07/09 04:32:28;;;;;;;16.00;10.10;;;;;;;14.54;99.71;102085.78;5220330;28;20030;-66
2021/07/09 04:34:59;;;;;;;13.95;9.82;;;;;;;14.59;99.08;102087.09;5220001;28;20064;-66
2021/07/09 04:37:31;;;;;;;14.45;10.27;;;;;;;14.64;98.85;102093.78;5214633;28;20060;-66
2021/07/09 04:40:04;;;;;;;11.45;10.20;;;;;;;14.67;99.32;102089.09;5222524;28;20200;-66
2021/07/09 04:42:35;;;;;;;;;;;;;;;14.97;96.80;102096.28;5220640;28;20046;-66
2021/07/09 04:45:07;;;;;;;14.37;9.97;;;;;;;14.74;99.07;102090.28;5219991;28;19959;-66
2021/07/09 04:47:38;;;;;;;13.00;9.65;;;;;;;14.77;99.38;102095.31;5195852;28;20034;-66
2021/07/09 04:50:10;;;;;;;18.17;11.18;;;;;;;14.82;99.13;102090.47;5201483;28;20030;-66
2021/07/09 04:52:41;;;;;;;14.07;9.90;;;;;;;14.82;99.19;102089.66;5219538;28;20029;-66
2021/07/09 04:55:13;;;;;;;17.23;10.80;;;;;;;14.89;99.42;102098.72;5210348;28;20105;-66
2021/07/09 04:57:44;;;;;;;13.18;10.63;;;;;;;14.93;99.12;102099.31;5199887;28;20498;-66
2021/07/09 05:00:15;;;;;;;13.82;10.90;;;;;;;14.99;99.04;102093.50;5218928;28;20033;-66
2021/07/09 05:02:47;;;;;;;20.45;11.98;;;;;;;15.01;98.41;102088.94;5219424;28;20140;-66
2021/07/09 05:05:19;;;;;;;18.92;11.60;;;;;;;15.08;98.28;102088.31;5215940;28;20537;-66
2021/07/09 05:07:50;;;;;;;18.83;11.95;;;;;;;15.09;98.18;102091.78;5201623;28;20041;-66
2021/07/09 05:10:21;;;;;;;18.75;12.25;;;;;;;15.21;98.32;102093.38;5218643;28;20440;-66
2021/07/09 05:12:53;;;;;;;18.20;11.82;;;;;;;15.27;97.91;102099.97;5211398;28;20068;-66
2021/07/09 05:15:24;;;;;;;20.70;12.40;;;;;;;15.32;97.83;102108.31;5219084;28;20421;-66
2021/07/09 05:17:55;;;;;;;25.67;12.93;;;;;;;15.33;97.72;102102.88;5219088;28;20467;-67
2021/07/09 05:20:27;;;;;;;20.17;13.35;;;;;;;15.36;98.21;102104.44;5216929;28;20030;-66
2021/07/09 05:22:58;;;;;;;18.08;13.00;;;;;;;15.42;97.78;102089.88;5223392;28;20021;-66
2021/07/09 05:25:31;;;;;;;18.00;12.80;;;;;;;15.47;97.30;102085.03;5224675;28;20050;-66
2021/07/09 05:28:05;;;;;;;26.67;13.93;;;;;;;15.50;97.49;102082.16;5225283;28;20050;-67
2021/07/09 05:30:37;;;;;;;19.65;12.10;;;;;;;15.56;97.74;102078.97;5222201;28;20030;-66
2021/07/09 05:33:09;;;;;;;18.08;12.10;;;;;;;15.58;97.52;102090.25;5218534;28;20485;-66
2021/07/09 05:35:43;;;;;;;24.52;14.55;;;;;;;15.64;97.30;102089.69;5206820;28;20044;-66
2021/07/09 05:38:14;;;;;;;22.25;13.02;;;;;;;15.70;97.30;102105.06;5218705;28;20506;-66
2021/07/09 05:40:45;;;;;;;21.58;13.40;;;;;;;15.75;97.86;102104.66;5223916;28;20033;-66
2021/07/09 05:43:19;;;;;;;22.73;12.93;;;;;;;15.85;97.97;102102.06;5218787;28;20030;-66
2021/07/09 05:45:50;;;;;;;18.48;13.30;;;;;;;15.85;96.95;102099.41;5217815;28;20101;-66
2021/07/09 05:48:22;;;;;;;16.42;12.57;;;;;;;15.93;97.12;102097.75;5217413;28;20471;-66
2021/07/09 05:50:53;;;;;;;14.15;12.38;;;;;;;16.06;97.67;102097.50;5214756;28;20026;-66
2021/07/09 05:53:24;;;;;;;18.25;12.55;;;;;;;16.10;97.00;102092.78;5205042;28;20030;-66
2021/07/09 05:55:55;;;;;;;20.98;12.50;;;;;;;16.22;96.94;102099.66;5211563;28;20021;-67
2021/07/09 05:58:27;;;;;;;20.23;13.57;;;;;;;16.28;97.16;102093.81;5212643;28;20026;-66
2021/07/09 06:00:58;;;;;;;16.13;12.43;;;;;;;16.39;97.16;102092.84;5220492;28;20033;-66
2021/07/09 06:03:30;;;;;;;16.77;12.23;;;;;;;16.53;97.35;102095.94;5218191;28;20415;-66
2021/07/09 06:06:01;;;;;;;16.13;12.95;;;;;;;16.57;96.88;102083.25;5216726;28;20383;-67
2021/07/09 06:08:32;;;;;;;16.92;13.18;;;;;;;16.70;96.60;102086.44;5217969;28;20041;-66
2021/07/09 06:11:04;;;;;;;17.05;13.38;;;;;;;16.76;96.78;102093.03;5218230;28;20036;-66
2021/07/09 06:13:35;;;;;;;16.65;13.45;;;;;;;16.84;96.15;102089.69;5218851;28;20051;-66
2021/07/09 06:16:07;;;;;;;14.57;12.95;;;;;;;16.92;96.08;102077.41;5214016;28;20029;-66
2021/07/09 06:18:38;;;;;;;17.35;13.18;;;;;;;17.02;95.76;102098.59;5209890;28;20137;-66
2021/07/09 06:21:09;;;;;;;19.88;13.23;;;;;;;17.08;95.66;102087.41;5215332;28;20029;-66
2021/07/09 06:23:41;;;;;;;20.60;13.85;;;;;;;17.23;95.88;102096.56;5211787;28;20033;-66
2021/07/09 06:26:12;;;;;;;17.17;13.73;;;;;;;17.29;95.35;102083.75;5207347;28;20362;-67
2021/07/09 06:28:44;;;;;;;16.95;13.82;;;;;;;17.39;94.70;102089.88;5206919;28;20040;-66
2021/07/09 06:31:17;;;;;;;18.45;14.32;;;;;;;17.47;94.75;102097.94;5207057;28;20021;-66
2021/07/09 06:33:48;;;;;;;16.55;13.48;;;;;;;17.57;94.30;102109.31;5206271;28;20038;-66
2021/07/09 06:36:19;;;;;;;16.20;12.32;;;;;;;17.69;93.85;102102.88;5206770;28;20022;-66
2021/07/09 06:38:51;;;;;;;18.90;12.27;;;;;;;17.81;93.56;102105.38;5204202;28;20141;-66
2021/07/09 06:41:22;;;;;;;15.07;11.65;;;;;;;17.82;92.48;102101.72;5205350;28;20021;-66
2021/07/09 06:43:53;;;;;;;17.33;11.50;;;;;;;17.92;91.69;102106.00;5203122;28;20026;-66
2021/07/09 06:46:25;;;;;;;14.10;11.95;;;;;;;17.99;91.36;102108.88;5206171;28;20029;-67
2021/07/09 06:48:56;;;;;;;14.07;11.23;;;;;;;18.05;91.36;102118.91;5206205;28;20037;-66
2021/07/09 06:51:27;;;;;;;12.90;10.80;;;;;;;18.11;89.71;102112.19;5204132;28;20025;-66
2021/07/09 06:54:02;;;;;;;15.05;10.90;;;;;;;18.15;89.59;102122.34;5205105;28;20026;-67
2021/07/09 06:56:34;;;;;;;13.82;10.18;;;;;;;18.28;90.12;102119.31;5172331;28;20305;-66
2021/07/09 06:59:05;;;;;;;12.77;10.50;;;;;;;18.38;89.56;102114.78;5205183;28;20034;-66
2021/07/09 07:01:36;;;;;;;12.83;10.60;;;;;;;18.47;89.63;102121.00;5206557;28;20103;-67
2021/07/09 07:04:10;;;;;;;13.57;10.60;;;;;;;18.56;89.50;102125.44;5206751;28;20512;-67
2021/07/09 07:06:41;;;;;;;14.90;10.20;;;;;;;18.50;87.58;102117.22;5207041;28;20509;-66
2021/07/09 07:09:13;;;;;;;13.13;9.90;;;;;;;18.63;88.40;102125.63;5206535;28;20034;-67
2021/07/09 07:11:44;;;;;;;13.27;10.23;;;;;;;18.61;87.19;102119.66;5204415;28;20037;-66
2021/07/09 07:14:15;;;;;;;12.20;9.20;;;;;;;18.71;87.06;102125.75;5204279;28;20534;-66
2021/07/09 07:16:47;;;;;;;13.25;9.27;;;;;;;18.77;87.39;102119.84;5206746;28;20407;-67
2021/07/09 07:19:18;;;;;;;14.43;9.55;;;;;;;18.82;86.64;102108.75;5205790;28;20018;-67
2021/07/09 07:21:49;;;;;;;12.77;8.77;;;;;;;19.06;86.47;102122.22;5205665;28;20037;-67
2021/07/09 07:24:21;;;;;;;11.77;8.40;;;;;;;19.12;86.02;102123.41;5203834;28;20186;-67
2021/07/09 07:26:52;;;;;;;12.10;9.37;;;;;;;19.17;85.43;102119.31;5185155;28;20087;-66
2021/07/09 07:29:24;;;;;;;9.83;7.97;;;;;;;19.29;85.85;102127.03;5207019;28;20487;-66
2021/07/09 07:31:56;;;;;;;16.48;9.55;;;;;;;19.29;85.40;102130.53;5206612;28;20029;-67
2021/07/09 07:34:27;;;;;;;14.13;9.83;;;;;;;19.41;86.16;102128.44;5204865;28;20561;-67
2021/07/09 07:36:58;;;;;;;15.10;9.43;;;;;;;19.49;85.32;102120.50;5205555;28;20037;-67
2021/07/09 07:39:30;;;;;;;15.63;10.07;;;;;;;19.57;84.69;102117.91;5205377;28;20506;-67
2021/07/09 07:42:02;;;;;;;13.63;10.63;;;;;;;19.61;85.66;102113.94;5206773;28;20022;-67
2021/07/09 07:44:33;;;;;;;11.27;9.95;;;;;;;19.61;84.92;102121.91;5204885;28;20034;-67
2021/07/09 07:47:05;;;;;;;14.93;10.90;;;;;;;19.71;84.27;102124.50;5188766;28;20037;-67
2021/07/09 07:49:37;;;;;;;13.73;11.10;;;;;;;19.68;82.54;102122.97;5207899;28;20041;-66
2021/07/09 07:52:08;;;;;;;14.80;11.40;;;;;;;19.74;82.78;102115.38;5206599;28;20061;-67
2021/07/09 07:54:39;;;;;;;14.47;10.67;;;;;;;19.90;82.57;102118.09;5210197;28;20083;-67
2021/07/09 07:57:11;;;;;;;16.03;11.13;;;;;;;20.16;82.96;102121.50;5210165;28;20097;-67
2021/07/09 07:59:42;;;;;;;15.93;12.07;;;;;;;20.15;81.95;102119.84;5209906;28;20087;-66
2021/07/09 08:02:14;;;;;;;16.57;12.43;;;;;;;20.14;81.66;102125.31;5207385;28;20030;-67
2021/07/09 08:04:47;;;;;;;17.30;12.20;;;;;;;20.11;82.76;102115.81;5208936;28;20036;-67
2021/07/09 08:07:18;;;;;;;17.40;12.52;;;;;;;20.18;82.50;102119.50;5209746;28;20041;-67
2021/07/09 08:09:50;;;;;;;15.93;13.17;;;;;;;20.32;79.66;102115.38;5191315;28;20336;-67
2021/07/09 08:12:21;;;;;;;17.10;12.53;;;;;;;20.39;79.43;102115.56;5197355;28;20146;-67
2021/07/09 08:14:52;;;;;;;19.60;13.13;;;;;;;20.47;79.51;102114.75;5209473;28;20347;-67
2021/07/09 08:17:24;;;;;;;17.33;12.23;;;;;;;20.60;78.99;102118.59;5209677;28;20025;-67
2021/07/09 08:19:55;;;;;;;15.23;12.40;;;;;;;20.81;78.08;102117.31;5208929;28;20025;-67
2021/07/09 08:22:26;;;;;;;17.00;13.53;;;;;;;20.96;77.81;102112.97;5191852;28;20022;-67
2021/07/09 08:24:58;;;;;;;23.23;14.60;;;;;;;20.92;77.26;102116.13;5209894;28;20140;-67
2021/07/09 08:27:29;;;;;;;21.07;14.17;;;;;;;20.97;78.07;102117.28;5208580;28;20054;-67
2021/07/09 08:30:00;;;;;;;17.27;14.10;;;;;;;20.92;76.34;102118.81;5209196;28;20022;-67
2021/07/09 08:32:33;;;;;;;16.73;13.13;;;;;;;20.90;77.81;102127.78;5210077;28;20106;-67
2021/07/09 08:35:05;;;;;;;16.38;13.55;;;;;;;20.99;77.83;102117.13;5209571;28;20022;-67
2021/07/09 08:37:37;;;;;;;;;;;;;;;21.38;78.58;102120.75;5208151;28;20044;-67
2021/07/09 08:40:09;;;;;;;19.87;15.30;;;;;;;21.60;76.83;102119.19;5209307;28;19922;-67
2021/07/09 08:42:40;;;;;;;19.75;14.65;;;;;;;21.47;75.57;102116.22;5207503;28;20288;-67
2021/07/09 08:45:11;;;;;;;20.20;16.50;;;;;;;21.39;76.65;102116.25;5208631;28;20036;-67
2021/07/09 08:47:43;;;;;;;20.07;15.17;;;;;;;21.43;75.06;102119.41;5207896;28;20779;-67
2021/07/09 08:50:15;;;;;;;18.13;14.87;;;;;;;21.24;74.49;102117.91;5207992;28;20120;-67
2021/07/09 08:52:46;;;;;;;22.23;17.23;;;;;;;21.28;75.62;102119.25;5209393;28;20830;-67
2021/07/09 08:55:18;;;;;;;22.37;18.97;;;;;;;21.31;74.74;102110.91;5207374;28;20309;-66
2021/07/09 08:57:49;;;;;;;21.50;19.30;;;;;;;21.34;75.32;102111.44;5209594;28;20025;-66
2021/07/09 09:00:20;;;;;;;26.43;23.80;;;;;;;21.38;75.46;102114.59;5208230;28;20508;-66
2021/07/09 09:02:53;;;;;;;32.33;29.27;;;;;;;21.35;75.31;102113.09;5205442;28;20038;-67
2021/07/09 09:05:26;;;;;;;;;;;;;;;21.83;75.46;102107.78;5208804;28;20029;-66
2021/07/09 09:08:02;;;;;;;29.52;26.67;;;;;;;21.84;74.83;102109.44;5207539;28;19992;-66
2021/07/09 09:10:38;;;;;;;29.33;26.55;;;;;;;21.79;74.09;102103.81;5208510;28;20120;-67
2021/07/09 09:13:14;;;;;;;28.13;25.52;;;;;;;21.71;73.32;102107.34;5191277;28;20018;-66
2021/07/09 09:16:00;;;;;;;27.35;24.48;;;;;;;22.03;73.19;102102.84;5207710;28;20022;-66
2021/07/09 09:18:43;;;;;;;28.98;26.20;;;;;;;22.15;71.87;102103.31;5190334;28;20038;-67
2021/07/09 09:21:18;;;;;;;31.58;27.88;;;;;;;22.20;72.78;102093.78;5207796;28;20121;-67
2021/07/09 09:23:54;;;;;;;31.23;28.05;;;;;;;21.99;73.38;102102.34;5208132;28;20034;-67
2021/07/09 09:26:44;;;;;;;33.67;30.20;;;;;;;22.01;73.86;102102.19;5208392;28;20022;-67
2021/07/09 09:29:26;;;;;;;32.72;29.52;;;;;;;21.92;73.79;102101.41;5209369;28;20049;-67
2021/07/09 09:32:07;;;;;;;34.08;30.63;;;;;;;22.13;75.23;102098.13;5209828;28;20144;-67
2021/07/09 09:34:40;;;;;;;31.17;28.27;;;;;;;22.25;72.38;102096.75;5191988;28;20455;-67
2021/07/09 09:37:12;;;;;;;;;;;;;;;22.62;72.60;102099.66;5190564;28;20036;-67
2021/07/09 09:39:46;;;;;;;32.17;29.00;;;;;;;22.35;70.33;102091.19;5208603;28;19924;-67
2021/07/09 09:42:23;;;;;;;32.33;29.20;;;;;;;22.36;71.13;102086.66;5208416;28;20647;-67
2021/07/09 09:45:01;;;;;;;32.08;28.88;;;;;;;22.39;71.07;102102.31;5208722;28;20365;-67
2021/07/09 09:47:36;;;;;;;30.88;27.70;;;;;;;22.45;70.58;102093.59;5208265;28;20387;-67
2021/07/09 09:50:16;;;;;;;30.20;27.30;;;;;;;22.73;70.81;102089.38;5208319;28;20036;-67
2021/07/09 09:52:51;;;;;;;30.33;27.48;;;;;;;22.79;68.20;102083.31;5191230;28;20034;-67
2021/07/09 09:55:30;;;;;;;29.52;26.50;;;;;;;23.12;69.33;102087.56;5208594;28;20164;-67
2021/07/09 09:58:14;;;;;;;28.63;25.77;;;;;;;23.25;68.75;102090.41;5208697;28;20691;-67
2021/07/09 10:00:48;;;;;;;26.75;24.30;;;;;;;23.34;67.06;102080.47;5189797;28;20521;-67
2021/07/09 10:03:20;;;;;;;27.05;24.40;;;;;;;23.17;65.32;102079.81;5208419;28;20495;-67
2021/07/09 10:05:52;;;;;;;26.83;24.13;;;;;;;23.20;67.11;102084.78;5208472;28;20109;-67
2021/07/09 10:08:24;;;;;;;27.83;25.23;;;;;;;23.01;67.57;102080.81;5207948;28;20311;-67
2021/07/09 10:10:57;;;;;;;26.92;24.23;;;;;;;22.99;67.05;102072.13;5174838;28;20272;-67
2021/07/09 10:13:30;;;;;;;27.90;25.00;;;;;;;23.05;69.05;102068.72;5208434;28;20034;-67
2021/07/09 10:16:05;;;;;;;24.13;21.63;;;;;;;23.28;67.16;102072.16;5208787;28;20172;-67
2021/07/09 10:18:38;;;;;;;26.08;23.27;;;;;;;23.20;65.99;102068.75;5206169;28;20534;-67
2021/07/09 10:21:09;;;;;;;26.73;23.52;;;;;;;22.98;66.14;102073.16;5207699;28;20144;-67
2021/07/09 10:23:44;;;;;;;27.40;24.53;;;;;;;22.83;67.91;102073.09;5208821;28;20029;-67
2021/07/09 10:26:19;;;;;;;25.92;23.35;;;;;;;22.94;70.44;102077.19;5207178;28;20298;-67
2021/07/09 10:29:10;;;;;;;25.13;22.42;;;;;;;22.91;68.40;102074.84;5206367;28;20041;-67
2021/07/09 10:31:43;;;;;;;24.15;21.13;;;;;;;22.77;69.16;102058.63;5207618;28;20038;-67
2021/07/09 10:34:29;;;;;;;21.48;19.27;;;;;;;22.81;69.57;102059.91;5206373;28;20890;-67
2021/07/09 10:37:06;;;;;;;18.55;16.48;;;;;;;22.82;67.88;102066.91;5208170;28;20113;-67
2021/07/09 10:39:44;;;;;;;19.75;17.63;;;;;;;22.94;68.81;102059.31;5203986;28;20487;-67
2021/07/09 10:42:25;;;;;;;17.23;14.52;;;;;;;;;;5206679;28;20100;-67
2021/07/09 10:45:09;;;;;;;15.93;14.25;;;;;;;23.00;67.74;102071.97;5207362;28;20103;-67
2021/07/09 10:47:43;;;;;;;16.02;12.00;;;;;;;22.88;68.96;102056.50;5203345;28;20066;-67
2021/07/09 10:50:25;;;;;;;14.63;12.13;;;;;;;23.01;68.22;102052.22;5201562;28;20037;-67
2021/07/09 10:52:58;;;;;;;12.25;10.15;;;;;;;23.32;65.83;102056.56;5206021;28;20479;-67
2021/07/09 10:55:48;;;;;;;9.65;8.65;;;;;;;23.46;65.21;102057.59;5207344;28;20022;-67
2021/07/09 10:58:21;;;;;;;10.93;9.10;;;;;;;23.29;64.27;102063.09;5206477;28;20081;-67
2021/07/09 11:01:05;;;;;;;10.85;9.75;;;;;;;23.33;65.12;102057.41;5205815;28;20034;-67
2021/07/09 11:03:42;;;;;;;10.68;9.48;;;;;;;23.66;63.14;102049.81;5205640;28;20076;-67
2021/07/09 11:06:19;;;;;;;13.65;11.18;;;;;;;23.94;61.71;102047.28;5206206;28;20033;-67
2021/07/09 11:09:01;;;;;;;13.65;11.80;;;;;;;24.20;61.40;102050.22;5205980;28;20033;-67
2021/07/09 11:11:48;;;;;;;13.15;11.68;;;;;;;24.30;62.03;102041.06;5205275;28;21597;-67
2021/07/09 11:14:36;;;;;;;13.88;10.45;;;;;;;24.62;60.85;102050.41;5206763;28;20040;-67
2021/07/09 11:17:14;;;;;;;9.85;8.63;;;;;;;24.42;60.90;102048.41;5206557;28;20090;-67
2021/07/09 11:19:45;;;;;;;9.55;8.57;;;;;;;23.96;59.47;102058.63;5205227;28;20693;-67
2021/07/09 11:22:18;;;;;;;9.00;7.67;;;;;;;23.69;59.53;102052.97;5206307;28;20025;-67
2021/07/09 11:24:53;;;;;;;11.05;8.30;;;;;;;23.68;59.50;102055.84;5207448;28;20042;-67
2021/07/09 11:27:25;;;;;;;11.52;9.65;;;;;;;23.74;61.57;102050.56;5199920;28;20551;-67
2021/07/09 11:29:59;;;;;;;13.23;10.35;;;;;;;23.94;62.25;102052.63;5188548;28;20851;-69
2021/07/09 11:32:31;;;;;;;14.88;11.10;;;;;;;23.88;62.39;102040.00;5186961;28;20109;-67
2021/07/09 11:35:03;;;;;;;18.00;11.87;;;;;;;23.96;61.83;102048.75;5189828;28;20022;-67
2021/07/09 11:37:35;;;;;;;14.55;10.65;;;;;;;23.94;62.50;102048.13;5188678;28;20128;-67
2021/07/09 11:40:11;;;;;;;11.57;9.77;;;;;;;23.97;61.79;102047.72;5188746;28;20132;-67
2021/07/09 11:42:42;;;;;;;8.43;6.60;;;;;;;23.72;57.96;102043.75;5189021;28;20114;-67
2021/07/09 11:45:19;;;;;;;8.13;6.20;;;;;;;23.71;59.07;102040.22;5188725;28;20472;-67
2021/07/09 11:47:50;;;;;;;9.75;7.38;;;;;;;23.49;59.04;102047.34;5190047;28;20026;-67